Meteo Giornale » Osservazioni meteo Stati Uniti (USA) » Bishop
ore: 21:56 - Osservazioni Meteo Bishop
Lat. 37° 22' N Lon. 118° 21' W Alt. 1256 metri s.l.m.
14 °C
Sereno
Temp. 24 Ore
14 °C
31 °C
Nord
11.1 Km/h
Dew point -9 °C
Umidità 19 %
Visibilità 10 Km
Il sole sorge alle ore 06:24
Il sole tramonta alle ore 19:22
| Data e Ora | Cielo e Fenomeni | T °C | DP °C | Um. % | Pres. hPa | Vis. km | Vento km/h | |
|---|---|---|---|---|---|---|---|---|
| Oggi h: 21:56 | Sereno | 14 | -9 | 19 | 1012 | 10 | N 11.1 | |
| Oggi h: 20:56 | Sereno | 19 | -9 | 14 | 1011 | 10 | S 14.8 | |
| Oggi h: 19:56 | Sereno | 23 | -12 | 8 | 1011 | 10 | E 11.1 | |
| Oggi h: 18:56 | Sereno | 27 | -13 | 6 | 1010 | 10 | S/SO 22.2 | |
| Oggi h: 17:56 | Sereno | 29 | -13 | 5 | 1010 | 10 | S 18.5 | |
| Oggi h: 16:56 | Sereno | 31 | -12 | 5 | 1010 | 10 | SE 31.5 | |
| Oggi h: 15:56 | Sereno | 31 | -12 | 5 | 1011 | 10 | S/SE 29.6 | |
| Oggi h: 14:56 | Sereno | 31 | -11 | 5 | 1011 | 10 | SE 29.6 | |
| Oggi h: 13:56 | Sereno | 30 | -9 | 7 | 1012 | 10 | S/SE 25.9 | |
| Oggi h: 12:56 | Sereno | 29 | -8 | 8 | 1013 | 10 | S/SE 22.2 | |
| Oggi h: 11:56 | Sereno | 28 | -6 | 10 | 1014 | 10 | S/SE 25.9 | |
| Oggi h: 10:56 | Sereno | 26 | -5 | 12 | 1015 | 10 | SE 27.8 | |
| Oggi h: 09:56 | Sereno | 24 | -4 | 15 | 1015 | 10 | S/SE 22.2 | |
| Oggi h: 08:56 | Sereno | 21 | 1 | 26 | 1015 | 10 | N 0 | |
| Oggi h: 07:56 | Sereno | 19 | 0 | 27 | 1015 | 10 | N 0 | |
| Oggi h: 06:56 | Sereno | 14 | -1 | 35 | 1014 | 10 | N/NO 7.4 | |
| Oggi h: 05:56 | Sereno | 17 | -1 | 29 | 1013 | 10 | S 14.8 | |
| Oggi h: 04:56 | Sereno | 19 | -1 | 25 | 1013 | 10 | S 24 | |
| Oggi h: 03:56 | Sereno | 20 | -1 | 24 | 1012 | 10 | S/SE 25.9 | |
| Oggi h: 02:56 | Sereno | 21 | -1 | 22 | 1012 | 10 | S/SE 27.8 | |
| Oggi h: 01:56 | Sereno | 22 | -1 | 21 | 1012 | 10 | S/SE 27.8 | |
| Oggi h: 00:56 | Sereno | 23 | -2 | 18 | 1013 | 10 | S/SE 25.9 | |
| Ieri h: 23:56 | Sereno | 23 | -1 | 20 | 1012 | 10 | S/SE 33.3 | |
| Ieri h: 22:56 | Sereno | 24 | -1 | 19 | 1012 | 10 | S/SE 29.6 | |



